Time;durP1;ratioP1;P1;durP2;ratioP2;P2;SDS_P1;SDS_P2;PMS_P1;PMS_P2;Temp;Humidity;BMP_temperature;BMP_pressure;BME280_temperature;BME280_humidity;BME280_pressure;Samples;Min_cycle;Max_cycle;Signal;HPM_P1;HPM_P2
2021/09/26 11:39:27;;;;;;;3.72;3.53;;;20.90;99.90;;;;;;5070890;28;20596;-76
2021/09/26 11:41:53;;;;;;;8.85;3.90;;;20.80;99.90;;;;;;5070846;28;20579;-76
2021/09/26 11:44:18;;;;;;;5.03;4.57;;;20.90;99.90;;;;;;5069726;28;20168;-76
2021/09/26 11:46:55;;;;;;;4.45;4.10;;;20.90;99.90;;;;;;5070812;28;20668;-76
2021/09/26 11:49:22;;;;;;;5.00;4.15;;;21.00;99.90;;;;;;5070742;28;20632;-76
2021/09/26 11:51:48;;;;;;;5.32;4.10;;;21.00;99.90;;;;;;5069716;28;20179;-76
2021/09/26 11:54:15;;;;;;;4.40;4.00;;;21.00;99.90;;;;;;5070711;28;20177;-76
2021/09/26 11:56:42;;;;;;;4.38;4.07;;;21.10;99.90;;;;;;5070726;28;20172;-76
2021/09/26 11:59:10;;;;;;;6.93;3.97;;;21.10;99.90;;;;;;5070448;28;20192;-76
2021/09/26 12:01:45;;;;;;;4.30;3.90;;;21.00;99.90;;;;;;5070623;28;20164;-76
2021/09/26 12:04:15;;;;;;;4.45;4.07;;;21.10;99.90;;;;;;5070584;28;20220;-76
2021/09/26 12:06:47;;;;;;;4.20;3.90;;;21.10;99.90;;;;;;5069394;28;20546;-76
2021/09/26 12:09:44;;;;;;;4.68;4.10;;;21.20;99.90;;;;;;5070467;28;20201;-76
2021/09/26 12:12:12;;;;;;;4.07;3.78;;;21.20;99.90;;;;;;5069117;28;20637;-76
2021/09/26 12:14:40;;;;;;;4.97;3.92;;;21.20;99.90;;;;;;5070139;28;20172;-76
2021/09/26 12:17:09;;;;;;;4.15;3.80;;;21.20;99.90;;;;;;5070065;28;20174;-76
2021/09/26 12:19:35;;;;;;;4.97;4.00;;;21.10;99.90;;;;;;5070057;28;20164;-76
2021/09/26 12:22:04;;;;;;;4.50;4.03;;;21.10;99.90;;;;;;5070009;28;20164;-76
2021/09/26 12:24:46;;;;;;;5.20;4.65;;;21.10;99.90;;;;;;5070173;28;20167;-76
2021/09/26 12:27:36;;;;;;;8.43;5.95;;;21.00;99.90;;;;;;5070154;28;20484;-76
2021/09/26 12:30:10;;;;;;;4.55;4.25;;;21.00;99.90;;;;;;5069938;28;20169;-76
2021/09/26 12:32:50;;;;;;;4.30;3.85;;;21.00;99.90;;;;;;5069453;28;20163;-76
2021/09/26 12:35:35;;;;;;;6.25;4.70;;;21.00;99.90;;;;;;5069669;28;20188;-76
2021/09/26 12:38:06;;;;;;;4.40;4.10;;;20.90;99.90;;;;;;5069520;28;20218;-76
2021/09/26 12:40:36;;;;;;;5.97;4.38;;;21.10;99.90;;;;;;5069565;28;20176;-76
2021/09/26 12:43:05;;;;;;;6.25;3.80;;;21.10;99.90;;;;;;5069531;28;20188;-75
2021/09/26 12:45:41;;;;;;;4.38;3.85;;;21.30;99.90;;;;;;5069569;28;20164;-76
2021/09/26 12:48:10;;;;;;;4.70;3.83;;;21.50;99.90;;;;;;5069339;28;20188;-74
2021/09/26 12:50:41;;;;;;;3.13;2.92;;;21.50;99.90;;;;;;5057022;28;20251;-74
2021/09/26 12:53:08;;;;;;;4.90;4.03;;;21.50;99.90;;;;;;5055432;28;20618;-74
2021/09/26 12:55:35;;;;;;;8.32;4.43;;;21.50;99.90;;;;;;5054733;28;20229;-74
2021/09/26 12:58:01;;;;;;;3.60;2.92;;;21.40;99.90;;;;;;5055622;28;20704;-74
2021/09/26 13:00:40;;;;;;;3.72;3.15;;;21.20;99.90;;;;;;5055583;28;20161;-74
2021/09/26 13:03:29;;;;;;;5.45;3.50;;;21.10;99.90;;;;;;5055615;28;20251;-74
2021/09/26 13:05:59;;;;;;;4.95;3.00;;;21.10;99.90;;;;;;5055568;28;20294;-74
2021/09/26 13:08:33;;;;;;;8.23;4.25;;;20.90;99.90;;;;;;5055662;28;20206;-74
2021/09/26 13:11:12;;;;;;;7.20;3.40;;;20.90;99.90;;;;;;5055527;28;20176;-74
2021/09/26 13:13:41;;;;;;;4.47;3.95;;;20.80;99.90;;;;;;5055503;28;20192;-74
2021/09/26 13:16:28;;;;;;;6.75;3.17;;;20.80;99.90;;;;;;5055427;28;20164;-74
2021/09/26 13:18:54;;;;;;;7.65;3.50;;;20.70;99.90;;;;;;5055389;28;20283;-75
2021/09/26 13:21:23;;;;;;;6.85;3.10;;;20.80;99.90;;;;;;5055317;28;20504;-75
2021/09/26 13:24:08;;;;;;;2.83;2.70;;;20.80;99.90;;;;;;5055311;28;20168;-75
2021/09/26 13:26:39;;;;;;;3.95;2.92;;;20.70;99.90;;;;;;5055246;28;20160;-75
2021/09/26 13:29:27;;;;;;;10.07;2.92;;;20.70;99.90;;;;;;5053897;28;20202;-75
2021/09/26 13:31:59;;;;;;;5.50;3.17;;;20.80;99.90;;;;;;5055172;28;20180;-75
2021/09/26 13:34:34;;;;;;;3.33;2.33;;;20.80;99.90;;;;;;5055047;28;20189;-75
2021/09/26 13:37:26;;;;;;;3.72;2.53;;;20.90;99.90;;;;;;5054801;28;20219;-75
2021/09/26 13:40:24;;;;;;;4.10;2.72;;;20.90;99.90;;;;;;5053753;28;20418;-75
2021/09/26 13:42:59;;;;;;;4.90;3.15;;;20.90;99.90;;;;;;5053605;28;20610;-75
2021/09/26 13:45:25;;;;;;;5.00;3.08;;;20.90;99.90;;;;;;5054837;28;20215;-75
2021/09/26 13:47:51;;;;;;;3.03;2.83;;;20.80;99.90;;;;;;5054867;28;20172;-75
2021/09/26 13:50:16;;;;;;;3.63;3.33;;;20.80;99.90;;;;;;5054830;28;20165;-76
2021/09/26 13:52:43;;;;;;;8.27;4.00;;;20.80;99.90;;;;;;5054708;28;20203;-75
2021/09/26 13:55:09;;;;;;;3.92;3.30;;;20.80;99.90;;;;;;5054722;28;20207;-75
2021/09/26 13:57:35;;;;;;;3.88;3.65;;;20.80;99.90;;;;;;5054577;28;20265;-75
2021/09/26 14:00:03;;;;;;;6.47;5.35;;;20.80;99.90;;;;;;5054628;28;20164;-75
2021/09/26 14:02:28;;;;;;;4.38;4.05;;;20.80;99.90;;;;;;5053422;28;20214;-75
2021/09/26 14:04:55;;;;;;;4.95;4.57;;;20.70;99.90;;;;;;5053244;28;20172;-75
2021/09/26 14:07:20;;;;;;;6.03;3.95;;;20.70;99.90;;;;;;5053227;28;20179;-75
2021/09/26 14:09:46;;;;;;;5.40;4.47;;;20.70;99.90;;;;;;5053197;28;20189;-75
2021/09/26 14:12:14;;;;;;;6.22;4.15;;;20.60;99.90;;;;;;5054390;28;20165;-75
2021/09/26 14:14:40;;;;;;;4.03;3.83;;;20.50;99.90;;;;;;5054271;28;20192;-75
2021/09/26 14:17:07;;;;;;;4.97;4.40;;;20.40;99.90;;;;;;5054119;28;20338;-76
2021/09/26 14:19:33;;;;;;;5.13;4.45;;;20.40;99.90;;;;;;5054199;28;20168;-76
2021/09/26 14:22:00;;;;;;;9.15;4.95;;;20.30;99.90;;;;;;5054188;28;20164;-76
2021/09/26 14:24:25;;;;;;;5.35;4.68;;;20.30;99.90;;;;;;5054170;28;20190;-75
2021/09/26 14:26:53;;;;;;;5.10;4.70;;;20.20;99.90;;;;;;5052882;28;20177;-75
2021/09/26 14:29:19;;;;;;;4.55;4.25;;;20.20;99.90;;;;;;5054127;28;20172;-75
2021/09/26 14:31:45;;;;;;;5.20;4.47;;;20.20;99.90;;;;;;5054074;28;20622;-76
2021/09/26 14:34:10;;;;;;;6.55;4.13;;;20.30;99.90;;;;;;5054130;28;20165;-76
2021/09/26 14:36:36;;;;;;;4.05;3.80;;;20.40;99.90;;;;;;5053943;28;20213;-75
2021/09/26 14:39:03;;;;;;;5.75;4.38;;;20.50;99.90;;;;;;5052450;28;20293;-76
2021/09/26 14:41:28;;;;;;;4.10;3.88;;;20.50;99.90;;;;;;5053860;28;20172;-76
2021/09/26 14:43:55;;;;;;;7.65;5.22;;;20.40;99.90;;;;;;5053772;28;20164;-76
2021/09/26 14:46:22;;;;;;;5.88;5.28;;;20.40;99.90;;;;;;5053903;28;20175;-76
2021/09/26 14:48:49;;;;;;;5.80;5.35;;;20.40;99.90;;;;;;5053874;28;20181;-76
2021/09/26 14:51:17;;;;;;;4.88;4.47;;;20.50;99.90;;;;;;5053854;28;20252;-76
2021/09/26 14:53:45;;;;;;;5.10;4.78;;;20.50;99.90;;;;;;5053669;28;20192;-76
2021/09/26 14:56:11;;;;;;;4.72;4.43;;;20.60;99.90;;;;;;5053651;28;20168;-76
2021/09/26 14:58:38;;;;;;;6.22;4.40;;;20.60;99.90;;;;;;5053531;28;20187;-75
2021/09/26 15:01:04;;;;;;;4.93;4.53;;;20.60;99.90;;;;;;5053503;28;20164;-75
2021/09/26 15:03:30;;;;;;;7.72;4.57;;;20.60;99.90;;;;;;5052275;28;20255;-76
2021/09/26 15:05:56;;;;;;;6.65;4.57;;;20.50;99.90;;;;;;5053558;28;20196;-76
2021/09/26 15:08:21;;;;;;;5.63;5.22;;;20.50;99.90;;;;;;5052256;28;20180;-76
2021/09/26 15:10:47;;;;;;;5.53;4.90;;;20.40;99.90;;;;;;5053447;28;20266;-76
2021/09/26 15:13:13;;;;;;;5.38;4.88;;;20.40;99.90;;;;;;5053215;28;20196;-76
2021/09/26 15:15:40;;;;;;;4.65;4.22;;;20.40;99.90;;;;;;5053181;28;20180;-76
2021/09/26 15:18:06;;;;;;;6.18;5.68;;;20.40;99.90;;;;;;5053318;28;20194;-76
2021/09/26 15:20:33;;;;;;;5.07;4.75;;;20.40;99.90;;;;;;5053413;28;20161;-76
2021/09/26 15:22:59;;;;;;;4.82;4.38;;;20.40;99.90;;;;;;5052129;28;20169;-76
2021/09/26 15:25:30;;;;;;;5.53;4.93;;;20.30;99.90;;;;;;5053223;28;20172;-76
2021/09/26 15:27:55;;;;;;;7.00;4.57;;;20.20;99.90;;;;;;5051977;28;20195;-76
2021/09/26 15:30:21;;;;;;;5.15;4.82;;;20.20;99.90;;;;;;5053250;28;20200;-76
2021/09/26 15:32:47;;;;;;;5.20;4.70;;;20.20;99.90;;;;;;5053244;28;20187;-76
2021/09/26 15:35:14;;;;;;;5.07;4.68;;;20.20;99.90;;;;;;5053191;28;20172;-76
2021/09/26 15:37:41;;;;;;;5.03;4.63;;;20.10;99.90;;;;;;5051677;28;20327;-76
2021/09/26 15:40:10;;;;;;;5.85;4.97;;;20.10;99.90;;;;;;5053123;28;20168;-76
2021/09/26 15:42:36;;;;;;;5.40;4.90;;;20.00;99.90;;;;;;5051817;28;20628;-76
2021/09/26 15:45:15;;;;;;;5.05;4.50;;;19.90;99.90;;;;;;5051799;28;20172;-76
2021/09/26 15:47:40;;;;;;;8.63;4.80;;;19.90;99.90;;;;;;5053103;28;20172;-76
2021/09/26 15:50:09;;;;;;;9.20;5.43;;;19.80;99.90;;;;;;5052946;28;20177;-76
2021/09/26 15:52:35;;;;;;;5.88;5.40;;;19.80;99.90;;;;;;5052853;28;20234;-75
2021/09/26 15:55:03;;;;;;;6.47;5.88;;;19.70;99.90;;;;;;5052889;28;20251;-76
2021/09/26 15:57:30;;;;;;;5.75;5.25;;;19.90;99.90;;;;;;5052761;28;20611;-76
2021/09/26 15:59:56;;;;;;;8.40;5.07;;;19.80;99.90;;;;;;5052912;28;20172;-76
2021/09/26 16:02:22;;;;;;;6.03;4.63;;;19.80;99.90;;;;;;5052978;28;20161;-76
2021/09/26 16:04:47;;;;;;;7.65;4.75;;;19.80;99.90;;;;;;5052917;28;20211;-76
2021/09/26 16:07:13;;;;;;;5.13;4.65;;;19.70;99.90;;;;;;5052895;28;20195;-76
2021/09/26 16:09:38;;;;;;;5.03;4.63;;;19.70;99.90;;;;;;5052837;28;20252;-76
2021/09/26 16:12:04;;;;;;;6.10;5.00;;;19.60;99.90;;;;;;5052813;28;20169;-76
2021/09/26 16:14:30;;;;;;;5.40;5.00;;;19.70;99.90;;;;;;5052817;28;20626;-75
2021/09/26 16:16:55;;;;;;;5.35;4.80;;;19.60;99.90;;;;;;5052886;28;20179;-76
2021/09/26 16:19:21;;;;;;;6.15;5.55;;;19.60;99.90;;;;;;5052739;28;20201;-76
2021/09/26 16:21:47;;;;;;;6.07;5.57;;;19.50;99.90;;;;;;5051514;28;20537;-76
2021/09/26 16:24:12;;;;;;;5.88;5.38;;;19.50;99.90;;;;;;5051980;28;20171;-76
2021/09/26 16:26:38;;;;;;;5.90;5.50;;;19.50;99.90;;;;;;5056398;28;20168;-76
2021/09/26 16:29:05;;;;;;;8.07;5.40;;;19.40;99.90;;;;;;5056416;28;20176;-75
2021/09/26 16:31:31;;;;;;;6.35;5.85;;;19.30;99.90;;;;;;5056457;28;20165;-76
2021/09/26 16:33:58;;;;;;;5.97;5.47;;;19.40;99.90;;;;;;5056435;28;20649;-76
2021/09/26 16:36:25;;;;;;;5.70;5.30;;;19.30;99.90;;;;;;5056259;28;20661;-75
2021/09/26 16:38:51;;;;;;;6.68;5.95;;;19.30;99.90;;;;;;5056116;28;20246;-76
2021/09/26 16:41:17;;;;;;;5.97;5.47;;;19.20;99.90;;;;;;5056236;28;20168;-76
2021/09/26 16:43:44;;;;;;;10.63;5.57;;;19.10;99.90;;;;;;5056263;28;20247;-75
2021/09/26 16:46:11;;;;;;;6.10;5.55;;;19.10;99.90;;;;;;5056193;28;20161;-76
2021/09/26 16:48:37;;;;;;;6.32;5.82;;;19.00;99.90;;;;;;5056145;28;20251;-75
2021/09/26 16:51:05;;;;;;;7.55;6.78;;;19.00;99.90;;;;;;5056133;28;20181;-76
